createdAt,value
2023-01-10T00:00:39.879Z,1004.62
2023-01-10T00:01:39.797Z,1004.62
2023-01-10T00:02:39.827Z,1004.66
2023-01-10T00:03:39.751Z,1004.69
2023-01-10T00:04:39.768Z,1004.71
2023-01-10T00:05:39.701Z,1004.67
2023-01-10T00:06:39.670Z,1004.72
2023-01-10T00:07:39.640Z,1004.72
2023-01-10T00:08:39.617Z,1004.75
2023-01-10T00:09:39.603Z,1004.78
2023-01-10T00:10:39.567Z,1004.79
2023-01-10T00:11:39.534Z,1004.83
2023-01-10T00:12:39.509Z,1004.86
2023-01-10T00:13:39.490Z,1004.86
2023-01-10T00:14:39.453Z,1004.92
2023-01-10T00:15:39.467Z,1004.94
2023-01-10T00:16:39.404Z,1004.93
2023-01-10T00:17:39.375Z,1004.92
2023-01-10T00:18:39.356Z,1004.93
2023-01-10T00:19:39.318Z,1005.00
2023-01-10T00:20:39.301Z,1005.00
2023-01-10T00:21:39.272Z,1005.05
2023-01-10T00:22:39.245Z,1005.07
2023-01-10T00:23:39.217Z,1005.09
2023-01-10T00:24:39.201Z,1005.12
2023-01-10T00:25:39.182Z,1005.16
2023-01-10T00:26:39.136Z,1005.21
2023-01-10T00:27:39.112Z,1005.26
2023-01-10T00:28:39.084Z,1005.27
2023-01-10T00:29:39.051Z,1005.31
2023-01-10T00:30:39.029Z,1005.29
2023-01-10T00:31:38.999Z,1005.36
2023-01-10T00:32:38.982Z,1005.35
2023-01-10T00:33:38.946Z,1005.38
2023-01-10T00:34:38.930Z,1005.41
2023-01-10T00:35:38.902Z,1005.41
2023-01-10T00:36:38.873Z,1005.39
2023-01-10T00:37:38.845Z,1005.39
2023-01-10T00:38:38.823Z,1005.43
2023-01-10T00:39:38.788Z,1005.47
2023-01-10T00:40:38.773Z,1005.52
2023-01-10T00:41:38.759Z,1005.55
2023-01-10T00:42:38.710Z,1005.55
2023-01-10T00:43:38.684Z,1005.57
2023-01-10T00:44:38.657Z,1005.54
2023-01-10T00:45:38.623Z,1005.62
2023-01-10T00:46:38.609Z,1005.63
2023-01-10T00:47:38.576Z,1005.64
2023-01-10T00:48:38.550Z,1005.64
2023-01-10T00:49:38.529Z,1005.64
2023-01-10T00:50:38.501Z,1005.72
2023-01-10T00:51:38.477Z,1005.72
2023-01-10T00:52:38.446Z,1005.72
2023-01-10T00:53:38.414Z,1005.76
2023-01-10T00:54:38.404Z,1005.75
2023-01-10T00:55:38.372Z,1005.74
2023-01-10T00:56:38.346Z,1005.82
2023-01-10T00:57:38.347Z,1005.75
2023-01-10T00:58:38.289Z,1005.77
2023-01-10T00:59:38.259Z,1005.77
2023-01-10T01:00:38.233Z,1005.79
2023-01-10T01:01:38.375Z,1005.83
2023-01-10T01:02:38.233Z,1005.88
2023-01-10T01:03:38.151Z,1005.93
2023-01-10T01:04:38.131Z,1005.90
2023-01-10T01:05:38.098Z,1005.96
2023-01-10T01:06:38.077Z,1005.92
2023-01-10T01:07:38.045Z,1005.95
2023-01-10T01:08:38.020Z,1005.93
2023-01-10T01:09:37.998Z,1005.93
2023-01-10T01:10:37.970Z,1006.03
2023-01-10T01:11:37.942Z,1006.05
2023-01-10T01:12:37.915Z,1006.12
2023-01-10T01:13:37.907Z,1006.16
2023-01-10T01:14:37.858Z,1006.20
2023-01-10T01:15:37.880Z,1006.21
2023-01-10T01:16:37.803Z,1006.24
2023-01-10T01:17:37.774Z,1006.23
2023-01-10T01:18:37.749Z,1006.23
2023-01-10T01:19:37.720Z,1006.29
2023-01-10T01:20:37.695Z,1006.33
2023-01-10T01:21:37.668Z,1006.35
2023-01-10T01:22:37.658Z,1006.41
2023-01-10T01:23:37.623Z,1006.44
2023-01-10T01:24:37.589Z,1006.45
2023-01-10T01:25:37.563Z,1006.51
2023-01-10T01:26:37.539Z,1006.58
2023-01-10T01:27:37.520Z,1006.61
2023-01-10T01:28:37.488Z,1006.64
2023-01-10T01:29:43.444Z,1006.68
2023-01-10T01:30:37.430Z,1006.67
2023-01-10T01:31:37.407Z,1006.71
2023-01-10T01:32:37.377Z,1006.77
2023-01-10T01:33:37.348Z,1006.77
2023-01-10T01:34:37.323Z,1006.82
2023-01-10T01:35:37.292Z,1006.85
2023-01-10T01:36:37.269Z,1006.87
2023-01-10T01:37:37.235Z,1006.84
2023-01-10T01:38:37.210Z,1006.85
2023-01-10T01:39:37.218Z,1006.87
2023-01-10T01:40:37.166Z,1006.89
2023-01-10T01:41:37.132Z,1006.86
2023-01-10T01:42:37.106Z,1006.91
2023-01-10T01:43:37.076Z,1006.87
2023-01-10T01:44:37.060Z,1006.95
2023-01-10T01:45:37.048Z,1006.97
2023-01-10T01:46:37.021Z,1007.01
2023-01-10T01:47:36.970Z,1007.00
2023-01-10T01:48:36.949Z,1007.01
2023-01-10T01:49:36.915Z,1007.01
2023-01-10T01:50:36.891Z,1007.02
2023-01-10T01:51:36.869Z,1007.02
2023-01-10T01:52:36.843Z,1007.02
2023-01-10T01:53:36.819Z,1007.07
2023-01-10T01:54:36.820Z,1007.08
2023-01-10T01:55:36.765Z,1007.08
2023-01-10T01:56:36.732Z,1007.12
2023-01-10T01:57:36.696Z,1007.13
2023-01-10T01:58:36.677Z,1007.14
2023-01-10T01:59:36.646Z,1007.14
2023-01-10T02:00:36.641Z,1007.16
2023-01-10T02:01:36.747Z,1007.08
2023-01-10T02:02:36.609Z,1007.16
2023-01-10T02:03:36.539Z,1007.12
2023-01-10T02:04:36.519Z,1007.12
2023-01-10T02:05:36.496Z,1007.11
2023-01-10T02:06:36.466Z,1007.11
2023-01-10T02:07:36.432Z,1007.13
2023-01-10T02:08:36.415Z,1007.05
2023-01-10T02:09:36.391Z,1007.08
2023-01-10T02:10:36.369Z,1007.09
2023-01-10T02:11:36.337Z,1007.09
2023-01-10T02:12:36.305Z,1007.07
2023-01-10T02:13:36.274Z,1007.10
2023-01-10T02:14:36.252Z,1007.10
2023-01-10T02:15:36.276Z,1007.11
2023-01-10T02:16:36.194Z,1007.14
2023-01-10T02:17:36.186Z,1007.11
2023-01-10T02:18:36.139Z,1007.13
2023-01-10T02:19:36.109Z,1007.15
2023-01-10T02:20:36.089Z,1007.14
2023-01-10T02:21:36.059Z,1007.17
2023-01-10T02:22:36.037Z,1007.14
2023-01-10T02:23:36.009Z,1007.14
2023-01-10T02:24:35.979Z,1007.16
2023-01-10T02:25:35.950Z,1007.21
2023-01-10T02:26:35.925Z,1007.19
2023-01-10T02:27:35.907Z,1007.22
2023-01-10T02:28:35.877Z,1007.21
2023-01-10T02:29:35.844Z,1007.21
2023-01-10T02:30:35.827Z,1007.25
2023-01-10T02:31:35.816Z,1007.23
2023-01-10T02:32:47.699Z,1007.19
2023-01-10T02:33:35.755Z,1007.25
2023-01-10T02:34:35.706Z,1007.30
2023-01-10T02:35:35.687Z,1007.30
2023-01-10T02:36:35.660Z,1007.30
2023-01-10T02:37:35.625Z,1007.33
2023-01-10T02:38:35.603Z,1007.27
2023-01-10T02:39:35.570Z,1007.30
2023-01-10T02:40:35.546Z,1007.25
2023-01-10T02:41:35.533Z,1007.31
2023-01-10T02:42:35.523Z,1007.32
2023-01-10T02:43:35.512Z,1007.34
2023-01-10T02:44:35.445Z,1007.34
2023-01-10T02:45:35.406Z,1007.32
2023-01-10T02:46:35.447Z,1007.26
2023-01-10T02:47:35.357Z,1007.29
2023-01-10T02:48:35.332Z,1007.26
2023-01-10T02:49:35.326Z,1007.27
2023-01-10T02:50:35.285Z,1007.32
2023-01-10T02:51:35.251Z,1007.29
2023-01-10T02:52:35.241Z,1007.32
2023-01-10T02:53:35.194Z,1007.33
2023-01-10T02:54:35.172Z,1007.36
2023-01-10T02:55:35.146Z,1007.35
2023-01-10T02:56:35.116Z,1007.41
2023-01-10T02:57:35.093Z,1007.37
2023-01-10T02:58:35.065Z,1007.38
2023-01-10T02:59:35.038Z,1007.42
2023-01-10T03:00:35.012Z,1007.40
2023-01-10T03:01:35.158Z,1007.38
2023-01-10T03:02:34.965Z,1007.41
2023-01-10T03:03:34.929Z,1007.40
2023-01-10T03:04:35.017Z,1007.48
2023-01-10T03:05:34.896Z,1007.52
2023-01-10T03:06:34.847Z,1007.48
2023-01-10T03:07:34.830Z,1007.53
2023-01-10T03:08:34.796Z,1007.59
2023-01-10T03:09:34.762Z,1007.56
2023-01-10T03:10:34.746Z,1007.65
2023-01-10T03:11:34.713Z,1007.63
2023-01-10T03:12:34.695Z,1007.60
2023-01-10T03:13:34.660Z,1007.61
2023-01-10T03:14:34.633Z,1007.59
2023-01-10T03:15:34.605Z,1007.59
2023-01-10T03:16:34.583Z,1007.57
2023-01-10T03:17:34.558Z,1007.61
2023-01-10T03:18:34.524Z,1007.68
2023-01-10T03:19:34.501Z,1007.65
2023-01-10T03:20:34.474Z,1007.68
2023-01-10T03:21:34.461Z,1007.76
2023-01-10T03:22:34.427Z,1007.70
2023-01-10T03:23:34.389Z,1007.78
2023-01-10T03:24:34.374Z,1007.79
2023-01-10T03:25:34.340Z,1007.81
2023-01-10T03:26:34.317Z,1007.84
2023-01-10T03:27:34.287Z,1007.90
2023-01-10T03:28:34.277Z,1007.90
2023-01-10T03:29:34.230Z,1007.92
2023-01-10T03:30:34.214Z,1007.93
2023-01-10T03:31:34.223Z,1007.93
2023-01-10T03:32:34.146Z,1007.95
2023-01-10T03:33:34.127Z,1007.94
2023-01-10T03:34:34.097Z,1007.96
2023-01-10T03:35:34.067Z,1007.97
2023-01-10T03:36:34.048Z,1007.99
2023-01-10T03:37:34.032Z,1008.02
2023-01-10T03:38:33.994Z,1008.07
2023-01-10T03:39:33.963Z,1008.01
2023-01-10T03:40:33.936Z,1008.07
2023-01-10T03:41:33.910Z,1008.08
2023-01-10T03:42:33.886Z,1008.12
2023-01-10T03:43:33.876Z,1008.14
2023-01-10T03:44:33.839Z,1008.16
2023-01-10T03:45:33.800Z,1008.14
2023-01-10T03:46:33.792Z,1008.11
2023-01-10T03:47:33.741Z,1008.16
2023-01-10T03:48:33.716Z,1008.12
2023-01-10T03:49:33.685Z,1008.13
2023-01-10T03:50:33.664Z,1008.12
2023-01-10T03:51:33.635Z,1008.16
2023-01-10T03:52:33.610Z,1008.20
2023-01-10T03:53:33.598Z,1008.18
2023-01-10T03:54:33.557Z,1008.20
2023-01-10T03:55:33.533Z,1008.22
2023-01-10T03:56:33.503Z,1008.22
2023-01-10T03:57:33.474Z,1008.27
2023-01-10T03:58:33.480Z,1008.35
2023-01-10T03:59:33.423Z,1008.34
2023-01-10T04:00:33.396Z,1008.36
2023-01-10T04:01:33.485Z,1008.32
2023-01-10T04:02:33.344Z,1008.35
2023-01-10T04:03:33.315Z,1008.38
2023-01-10T04:04:33.287Z,1008.41
2023-01-10T04:05:33.256Z,1008.44
2023-01-10T04:06:33.234Z,1008.44
2023-01-10T04:07:33.199Z,1008.46
2023-01-10T04:08:33.176Z,1008.48
2023-01-10T04:09:33.167Z,1008.52
2023-01-10T04:10:33.125Z,1008.53
2023-01-10T04:11:33.093Z,1008.52
2023-01-10T04:12:33.073Z,1008.55
2023-01-10T04:13:33.051Z,1008.54
2023-01-10T04:14:33.023Z,1008.58
2023-01-10T04:15:32.990Z,1008.59
2023-01-10T04:16:32.990Z,1008.60
2023-01-10T04:17:32.936Z,1008.60
2023-01-10T04:18:32.907Z,1008.61
2023-01-10T04:19:32.883Z,1008.65
2023-01-10T04:20:32.860Z,1008.67
2023-01-10T04:21:32.829Z,1008.77
2023-01-10T04:22:32.803Z,1008.83
2023-01-10T04:23:32.776Z,1008.82
2023-01-10T04:24:32.743Z,1008.79
2023-01-10T04:25:32.761Z,1008.80
2023-01-10T04:26:32.690Z,1008.81
2023-01-10T04:27:32.663Z,1008.83
2023-01-10T04:28:32.633Z,1008.85
2023-01-10T04:29:32.609Z,1008.86
2023-01-10T04:30:32.619Z,1008.89
2023-01-10T04:31:32.671Z,1008.88
2023-01-10T04:32:32.524Z,1008.93
2023-01-10T04:33:32.506Z,1008.92
2023-01-10T04:34:32.473Z,1008.98
2023-01-10T04:35:32.455Z,1009.00
2023-01-10T04:36:32.419Z,1008.99
2023-01-10T04:37:32.400Z,1009.01
2023-01-10T04:38:32.371Z,1009.07
2023-01-10T04:39:32.345Z,1009.07
2023-01-10T04:40:32.311Z,1009.09
2023-01-10T04:41:32.334Z,1009.07
2023-01-10T04:42:32.259Z,1009.07
2023-01-10T04:43:32.244Z,1009.07
2023-01-10T04:44:32.205Z,1009.02
2023-01-10T04:45:32.216Z,1009.04
2023-01-10T04:46:32.148Z,1009.02
2023-01-10T04:47:32.132Z,1009.03
2023-01-10T04:48:32.098Z,1009.03
2023-01-10T04:49:32.070Z,1009.06
2023-01-10T04:50:32.043Z,1009.07
2023-01-10T04:51:32.030Z,1009.07
2023-01-10T04:52:31.990Z,1009.06
2023-01-10T04:53:31.965Z,1009.03
2023-01-10T04:54:31.932Z,1009.01
2023-01-10T04:55:31.914Z,1008.99
2023-01-10T04:56:31.881Z,1008.98
2023-01-10T04:57:31.874Z,1009.03
2023-01-10T04:58:31.822Z,1008.98
2023-01-10T04:59:31.800Z,1008.99
2023-01-10T05:00:31.771Z,1008.98
2023-01-10T05:01:31.815Z,1008.97
2023-01-10T05:02:31.782Z,1009.04
2023-01-10T05:03:31.700Z,1009.07
2023-01-10T05:04:31.667Z,1009.07
2023-01-10T05:05:31.643Z,1009.06
2023-01-10T05:06:31.607Z,1009.09
2023-01-10T05:07:31.586Z,1009.14
2023-01-10T05:08:31.558Z,1009.13
2023-01-10T05:09:31.540Z,1009.17
2023-01-10T05:10:31.507Z,1009.17
2023-01-10T05:11:31.480Z,1009.17
2023-01-10T05:12:31.451Z,1009.17
2023-01-10T05:13:31.459Z,1009.22
2023-01-10T05:14:31.395Z,1009.20
2023-01-10T05:15:31.372Z,1009.21
2023-01-10T05:16:31.388Z,1009.22
2023-01-10T05:17:31.312Z,1009.17
2023-01-10T05:18:31.289Z,1009.18
2023-01-10T05:19:31.259Z,1009.19
2023-01-10T05:20:31.226Z,1009.20
2023-01-10T05:21:31.213Z,1009.20
2023-01-10T05:22:31.176Z,1009.18
2023-01-10T05:23:31.155Z,1009.24
2023-01-10T05:24:31.128Z,1009.25
2023-01-10T05:25:31.096Z,1009.31
2023-01-10T05:26:31.076Z,1009.33
2023-01-10T05:27:31.050Z,1009.34
2023-01-10T05:28:31.026Z,1009.40
2023-01-10T05:29:31.013Z,1009.38
2023-01-10T05:30:30.964Z,1009.39
2023-01-10T05:31:30.948Z,1009.45
2023-01-10T05:32:30.919Z,1009.48
2023-01-10T05:33:30.892Z,1009.50
2023-01-10T05:34:30.855Z,1009.53
2023-01-10T05:35:30.827Z,1009.57
2023-01-10T05:36:30.808Z,1009.68
2023-01-10T05:37:30.780Z,1009.72
2023-01-10T05:38:30.747Z,1009.65
2023-01-10T05:39:30.723Z,1009.70
2023-01-10T05:40:30.692Z,1009.64
2023-01-10T05:41:30.668Z,1009.70
2023-01-10T05:42:30.636Z,1009.73
2023-01-10T05:43:30.620Z,1009.76
2023-01-10T05:44:30.581Z,1009.73
2023-01-10T05:45:30.620Z,1009.72
2023-01-10T05:46:30.526Z,1009.77
2023-01-10T05:47:30.509Z,1009.76
2023-01-10T05:48:30.477Z,1009.73
2023-01-10T05:49:30.448Z,1009.83
2023-01-10T05:50:30.418Z,1009.77
2023-01-10T05:51:30.398Z,1009.75
2023-01-10T05:52:30.367Z,1009.77
2023-01-10T05:53:30.341Z,1009.76
2023-01-10T05:54:30.309Z,1009.75
2023-01-10T05:55:30.293Z,1009.75
2023-01-10T05:56:30.273Z,1009.77
2023-01-10T05:57:30.236Z,1009.76
2023-01-10T05:58:30.236Z,1009.77
2023-01-10T05:59:30.182Z,1009.83
2023-01-10T06:00:30.152Z,1009.82
2023-01-10T06:01:30.205Z,1009.84
2023-01-10T06:02:30.236Z,1009.88
2023-01-10T06:03:30.078Z,1009.92
2023-01-10T06:04:30.041Z,1009.99
2023-01-10T06:05:30.028Z,1009.97
2023-01-10T06:06:29.986Z,1009.99
2023-01-10T06:07:29.959Z,1010.01
2023-01-10T06:08:29.937Z,1010.00
2023-01-10T06:09:29.912Z,1009.98
2023-01-10T06:10:29.878Z,1010.00
2023-01-10T06:11:29.856Z,1010.01
2023-01-10T06:12:29.826Z,1010.02
2023-01-10T06:13:29.807Z,1010.03
2023-01-10T06:14:29.768Z,1010.01
2023-01-10T06:15:29.752Z,1010.01
2023-01-10T06:16:29.722Z,1009.99
2023-01-10T06:17:29.780Z,1010.00
2023-01-10T06:18:29.663Z,1010.01
2023-01-10T06:19:29.636Z,1010.01
2023-01-10T06:20:29.935Z,1010.14
2023-01-10T06:21:29.583Z,1010.13
2023-01-10T06:22:29.568Z,1010.15
2023-01-10T06:23:29.535Z,1010.13
2023-01-10T06:24:29.498Z,1010.16
2023-01-10T06:25:29.487Z,1010.13
2023-01-10T06:26:29.442Z,1010.14
2023-01-10T06:27:29.427Z,1010.18
2023-01-10T06:28:29.390Z,1010.14
2023-01-10T06:29:29.364Z,1010.15
2023-01-10T06:30:29.337Z,1010.14
2023-01-10T06:31:29.388Z,1010.17
2023-01-10T06:32:29.288Z,1010.24
2023-01-10T06:33:29.432Z,1010.26
2023-01-10T06:34:29.233Z,1010.23
2023-01-10T06:35:29.204Z,1010.24
2023-01-10T06:36:29.180Z,1010.20
2023-01-10T06:37:29.158Z,1010.21
2023-01-10T06:38:29.123Z,1010.21
2023-01-10T06:39:29.103Z,1010.24
2023-01-10T06:40:29.061Z,1010.23
2023-01-10T06:41:29.045Z,1010.26
2023-01-10T06:42:29.038Z,1010.23
2023-01-10T06:43:29.019Z,1010.21
2023-01-10T06:44:28.957Z,1010.22
2023-01-10T06:45:28.933Z,1010.25
2023-01-10T06:46:28.911Z,1010.31
2023-01-10T06:47:28.880Z,1010.33
2023-01-10T06:48:28.848Z,1010.36
2023-01-10T06:49:28.849Z,1010.41
2023-01-10T06:50:28.801Z,1010.43
2023-01-10T06:51:28.780Z,1010.47
2023-01-10T06:52:28.743Z,1010.53
2023-01-10T06:53:28.736Z,1010.59
2023-01-10T06:54:28.697Z,1010.59
2023-01-10T06:55:28.668Z,1010.62
2023-01-10T06:56:28.640Z,1010.70
2023-01-10T06:57:28.611Z,1010.72
2023-01-10T06:58:28.580Z,1010.76
2023-01-10T06:59:28.560Z,1010.79
2023-01-10T07:00:28.547Z,1010.83
2023-01-10T07:01:28.595Z,1010.84
2023-01-10T07:02:28.480Z,1010.82
2023-01-10T07:03:28.498Z,1010.79
2023-01-10T07:04:28.423Z,1010.77
2023-01-10T07:05:28.415Z,1010.73
2023-01-10T07:06:28.391Z,1010.67
2023-01-10T07:07:28.344Z,1010.67
2023-01-10T07:08:28.346Z,1010.68
2023-01-10T07:09:28.293Z,1010.71
2023-01-10T07:10:28.254Z,1010.80
2023-01-10T07:11:28.237Z,1010.88
2023-01-10T07:12:28.208Z,1010.97
2023-01-10T07:13:28.184Z,1011.03
2023-01-10T07:14:28.164Z,1011.00
2023-01-10T07:15:28.150Z,1010.99
2023-01-10T07:16:28.119Z,1010.96
2023-01-10T07:17:28.081Z,1010.93
2023-01-10T07:18:28.054Z,1010.98
2023-01-10T07:19:28.014Z,1010.95
2023-01-10T07:20:28.403Z,1010.94
2023-01-10T07:21:27.988Z,1010.95
2023-01-10T07:22:27.933Z,1010.96
2023-01-10T07:23:27.915Z,1010.96
2023-01-10T07:24:27.882Z,1010.89
2023-01-10T07:25:27.869Z,1010.95
2023-01-10T07:26:27.824Z,1010.93
2023-01-10T07:27:27.807Z,1010.96
2023-01-10T07:28:27.776Z,1011.00
2023-01-10T07:29:27.749Z,1011.09
2023-01-10T07:30:27.732Z,1011.09
2023-01-10T07:31:27.787Z,1011.08
2023-01-10T07:32:27.666Z,1011.10
2023-01-10T07:33:27.641Z,1011.14
2023-01-10T07:34:27.614Z,1011.21
2023-01-10T07:35:27.596Z,1011.21
2023-01-10T07:36:27.564Z,1011.24
2023-01-10T07:37:27.562Z,1011.27
2023-01-10T07:38:27.509Z,1011.26
2023-01-10T07:39:27.486Z,1011.25
2023-01-10T07:40:27.453Z,1011.26
2023-01-10T07:41:27.432Z,1011.31
2023-01-10T07:42:27.401Z,1011.34
2023-01-10T07:43:27.367Z,1011.34
2023-01-10T07:44:27.357Z,1011.42
2023-01-10T07:45:27.328Z,1011.37
2023-01-10T07:46:27.355Z,1011.42
2023-01-10T07:47:27.271Z,1011.43
2023-01-10T07:48:27.236Z,1011.41
2023-01-10T07:49:27.214Z,1011.44
2023-01-10T07:50:27.181Z,1011.43
2023-01-10T07:51:27.152Z,1011.42
2023-01-10T07:52:27.127Z,1011.39
2023-01-10T07:53:27.120Z,1011.38
2023-01-10T07:54:27.075Z,1011.41
2023-01-10T07:55:27.058Z,1011.38
2023-01-10T07:56:27.026Z,1011.37
2023-01-10T07:57:26.998Z,1011.41
2023-01-10T07:58:26.986Z,1011.39
2023-01-10T07:59:26.938Z,1011.45
2023-01-10T08:00:26.948Z,1011.52
2023-01-10T08:01:26.953Z,1011.56
2023-01-10T08:02:27.027Z,1011.60
2023-01-10T08:03:27.033Z,1011.62
2023-01-10T08:04:26.803Z,1011.61
2023-01-10T08:05:26.786Z,1011.64
2023-01-10T08:06:26.753Z,1011.67
2023-01-10T08:07:26.726Z,1011.68
2023-01-10T08:08:26.703Z,1011.64
2023-01-10T08:09:26.711Z,1011.65
2023-01-10T08:10:26.657Z,1011.65
2023-01-10T08:11:26.618Z,1011.70
2023-01-10T08:12:26.588Z,1011.65
2023-01-10T08:13:26.568Z,1011.64
2023-01-10T08:14:26.602Z,1011.66
2023-01-10T08:15:26.511Z,1011.64
2023-01-10T08:16:26.547Z,1011.70
2023-01-10T08:17:26.451Z,1011.67
2023-01-10T08:18:26.435Z,1011.70
2023-01-10T08:19:26.400Z,1011.72
2023-01-10T08:20:26.372Z,1011.74
2023-01-10T08:21:26.357Z,1011.69
2023-01-10T08:22:26.323Z,1011.73
2023-01-10T08:23:26.295Z,1011.73
2023-01-10T08:24:26.266Z,1011.72
2023-01-10T08:25:26.262Z,1011.72
2023-01-10T08:26:26.209Z,1011.78
2023-01-10T08:27:26.187Z,1011.73
2023-01-10T08:28:26.169Z,1011.78
2023-01-10T08:29:26.130Z,1011.78
2023-01-10T08:30:26.107Z,1011.79
2023-01-10T08:31:26.197Z,1011.78
2023-01-10T08:32:26.059Z,1011.82
2023-01-10T08:33:26.023Z,1011.80
2023-01-10T08:34:26.016Z,1011.83
2023-01-10T08:35:25.969Z,1011.82
2023-01-10T08:36:25.959Z,1011.81
2023-01-10T08:37:25.902Z,1011.76
2023-01-10T08:38:25.894Z,1011.79
2023-01-10T08:39:25.859Z,1011.79
2023-01-10T08:40:25.847Z,1011.76
2023-01-10T08:41:25.822Z,1011.81
2023-01-10T08:42:25.780Z,1011.79
2023-01-10T08:43:25.750Z,1011.79
2023-01-10T08:44:25.724Z,1011.79
2023-01-10T08:45:25.694Z,1011.80
2023-01-10T08:46:25.708Z,1011.74
2023-01-10T08:47:25.643Z,1011.79
2023-01-10T08:48:25.623Z,1011.78
2023-01-10T08:49:25.598Z,1011.80
2023-01-10T08:50:25.565Z,1011.79
2023-01-10T08:51:25.535Z,1011.78
2023-01-10T08:52:25.515Z,1011.84
2023-01-10T08:53:25.491Z,1011.87
2023-01-10T08:54:25.474Z,1011.88
2023-01-10T08:55:25.436Z,1011.84
2023-01-10T08:56:25.411Z,1011.87
2023-01-10T08:57:25.411Z,1011.89
2023-01-10T08:58:25.350Z,1011.93
2023-01-10T08:59:25.323Z,1011.95
2023-01-10T09:00:25.297Z,1011.96
2023-01-10T09:01:25.385Z,1011.96
2023-01-10T09:02:25.245Z,1011.93
2023-01-10T09:03:25.214Z,1011.99
2023-01-10T09:04:25.188Z,1011.94
2023-01-10T09:05:27.767Z,1011.99
2023-01-10T09:06:25.139Z,1012.02
2023-01-10T09:07:25.104Z,1012.00
2023-01-10T09:08:25.087Z,1011.98
2023-01-10T09:09:25.050Z,1011.98
2023-01-10T09:10:25.043Z,1011.97
2023-01-10T09:11:25.546Z,1011.97
2023-01-10T09:12:24.973Z,1012.01
2023-01-10T09:13:24.962Z,1012.04
2023-01-10T09:14:24.919Z,1011.99
2023-01-10T09:15:24.889Z,1011.98
2023-01-10T09:16:24.915Z,1011.99
2023-01-10T09:17:24.833Z,1012.00
2023-01-10T09:18:24.834Z,1011.97
2023-01-10T09:19:24.782Z,1011.99
2023-01-10T09:20:24.753Z,1012.02
2023-01-10T09:21:24.729Z,1012.02
2023-01-10T09:22:24.705Z,1012.05
2023-01-10T09:23:24.680Z,1012.01
2023-01-10T09:24:24.652Z,1012.01
2023-01-10T09:25:24.616Z,1012.02
2023-01-10T09:26:24.608Z,1012.03
2023-01-10T09:27:24.568Z,1012.03
2023-01-10T09:28:24.555Z,1012.07
2023-01-10T09:29:24.545Z,1012.08
2023-01-10T09:30:24.502Z,1012.06
2023-01-10T09:31:24.510Z,1012.09
2023-01-10T09:32:24.458Z,1012.04
2023-01-10T09:33:25.315Z,1012.08
2023-01-10T09:34:24.379Z,1012.13
2023-01-10T09:35:24.358Z,1012.14
2023-01-10T09:36:24.338Z,1012.17
2023-01-10T09:37:24.305Z,1012.18
2023-01-10T09:38:24.281Z,1012.19
2023-01-10T09:39:24.246Z,1012.19
2023-01-10T09:40:24.226Z,1012.19
2023-01-10T09:41:24.188Z,1012.27
2023-01-10T09:42:24.164Z,1012.28
2023-01-10T09:43:24.143Z,1012.23
2023-01-10T09:44:24.111Z,1012.25
2023-01-10T09:45:24.105Z,1012.23
2023-01-10T09:46:24.154Z,1012.22
2023-01-10T09:47:24.043Z,1012.25
2023-01-10T09:48:24.034Z,1012.24
2023-01-10T09:49:23.991Z,1012.25
2023-01-10T09:50:23.951Z,1012.28
2023-01-10T09:51:23.915Z,1012.31
2023-01-10T09:52:23.900Z,1012.32
2023-01-10T09:53:23.865Z,1012.34
2023-01-10T09:54:23.843Z,1012.36
2023-01-10T09:55:23.812Z,1012.34
2023-01-10T09:56:23.802Z,1012.42
2023-01-10T09:57:23.772Z,1012.38
2023-01-10T09:58:23.745Z,1012.52
2023-01-10T09:59:23.707Z,1012.47
2023-01-10T10:00:23.678Z,1012.45
2023-01-10T10:01:23.734Z,1012.44
2023-01-10T10:02:23.637Z,1012.43
2023-01-10T10:03:23.725Z,1012.43
2023-01-10T10:04:23.613Z,1012.42
2023-01-10T10:05:23.539Z,1012.43
2023-01-10T10:06:23.569Z,1012.43
2023-01-10T10:07:23.486Z,1012.40
2023-01-10T10:08:23.468Z,1012.37
2023-01-10T10:09:23.431Z,1012.43
2023-01-10T10:10:23.412Z,1012.37
2023-01-10T10:11:23.386Z,1012.37
2023-01-10T10:12:23.364Z,1012.38
2023-01-10T10:13:27.442Z,1012.36
2023-01-10T10:14:23.311Z,1012.36
2023-01-10T10:15:23.383Z,1012.35
2023-01-10T10:16:23.266Z,1012.38
2023-01-10T10:17:23.246Z,1012.37
2023-01-10T10:18:23.202Z,1012.34
2023-01-10T10:19:23.159Z,1012.36
2023-01-10T10:20:23.147Z,1012.32
2023-01-10T10:21:23.110Z,1012.34
2023-01-10T10:22:23.097Z,1012.30
2023-01-10T10:23:23.054Z,1012.36
2023-01-10T10:24:23.029Z,1012.31
2023-01-10T10:25:23.068Z,1012.35
2023-01-10T10:26:22.991Z,1012.36
2023-01-10T10:27:22.951Z,1012.37
2023-01-10T10:28:22.927Z,1012.27
2023-01-10T10:29:22.896Z,1012.30
2023-01-10T10:30:22.868Z,1012.27
2023-01-10T10:31:22.884Z,1012.25
2023-01-10T10:32:22.818Z,1012.31
2023-01-10T10:33:22.823Z,1012.31
2023-01-10T10:34:22.765Z,1012.27
2023-01-10T10:35:22.733Z,1012.25
2023-01-10T10:36:22.718Z,1012.22
2023-01-10T10:37:22.680Z,1012.30
2023-01-10T10:38:22.688Z,1012.31
2023-01-10T10:39:22.636Z,1012.28
2023-01-10T10:40:22.622Z,1012.28
2023-01-10T10:41:22.579Z,1012.18
2023-01-10T10:42:22.552Z,1012.14
2023-01-10T10:43:22.528Z,1012.18
2023-01-10T10:44:22.495Z,1012.22
2023-01-10T10:45:25.210Z,1012.22
2023-01-10T10:46:22.446Z,1012.20
2023-01-10T10:47:22.446Z,1012.22
2023-01-10T10:48:22.593Z,1012.25
2023-01-10T10:49:22.422Z,1012.24
2023-01-10T10:50:22.352Z,1012.24
2023-01-10T10:51:22.303Z,1012.24
2023-01-10T10:52:22.285Z,1012.23
2023-01-10T10:53:22.255Z,1012.24
2023-01-10T10:54:22.235Z,1012.18
2023-01-10T10:55:22.289Z,1012.20
2023-01-10T10:56:22.177Z,1012.18
2023-01-10T10:57:22.166Z,1012.14
2023-01-10T10:58:22.127Z,1012.16
2023-01-10T10:59:22.088Z,1012.13
2023-01-10T11:00:22.068Z,1012.06
2023-01-10T11:01:23.021Z,1012.11
2023-01-10T11:02:22.015Z,1012.09
2023-01-10T11:03:21.988Z,1012.15
2023-01-10T11:04:22.057Z,1012.13
2023-01-10T11:05:22.044Z,1012.11
2023-01-10T11:06:21.923Z,1012.08
2023-01-10T11:07:21.877Z,1012.08
2023-01-10T11:08:21.852Z,1012.07
2023-01-10T11:09:21.828Z,1012.14
2023-01-10T11:10:21.806Z,1012.09
2023-01-10T11:11:21.771Z,1012.07
2023-01-10T11:12:21.986Z,1012.06
2023-01-10T11:13:21.722Z,1012.08
2023-01-10T11:14:21.710Z,1012.08
2023-01-10T11:15:21.669Z,1012.01
2023-01-10T11:16:21.698Z,1011.97
2023-01-10T11:17:21.625Z,1011.99
2023-01-10T11:18:21.591Z,1012.02
2023-01-10T11:19:21.572Z,1012.02
2023-01-10T11:20:21.551Z,1011.96
2023-01-10T11:21:23.909Z,1011.95
2023-01-10T11:22:21.485Z,1011.90
2023-01-10T11:23:21.454Z,1011.93
2023-01-10T11:24:21.445Z,1011.96
2023-01-10T11:25:21.450Z,1011.87
2023-01-10T11:26:21.385Z,1011.89
2023-01-10T11:27:21.361Z,1011.87
2023-01-10T11:28:21.328Z,1011.87
2023-01-10T11:29:21.297Z,1011.89
2023-01-10T11:30:21.263Z,1011.88
2023-01-10T11:31:21.248Z,1011.88
2023-01-10T11:32:21.215Z,1011.88
2023-01-10T11:33:21.186Z,1011.89
2023-01-10T11:34:21.164Z,1011.89
2023-01-10T11:35:21.251Z,1011.91
2023-01-10T11:36:21.116Z,1011.99
2023-01-10T11:37:21.107Z,1011.94
2023-01-10T11:38:21.056Z,1011.94
2023-01-10T11:39:21.030Z,1011.96
2023-01-10T11:40:21.011Z,1011.88
2023-01-10T11:41:20.977Z,1011.92
2023-01-10T11:42:20.949Z,1011.85
2023-01-10T11:43:20.922Z,1011.92
2023-01-10T11:44:20.901Z,1011.87
2023-01-10T11:45:21.060Z,1011.88
2023-01-10T11:46:20.914Z,1011.93
2023-01-10T11:47:20.897Z,1011.90
2023-01-10T11:48:21.380Z,1011.89
2023-01-10T11:49:20.758Z,1011.87
2023-01-10T11:50:20.736Z,1011.83
2023-01-10T11:51:20.713Z,1011.86
2023-01-10T11:52:20.684Z,1011.83
2023-01-10T11:53:20.678Z,1011.85
2023-01-10T11:54:20.636Z,1011.81
2023-01-10T11:55:20.604Z,1011.79
2023-01-10T11:56:20.580Z,1011.78
2023-01-10T11:57:20.552Z,1011.80
2023-01-10T11:58:20.533Z,1011.79
2023-01-10T11:59:20.501Z,1011.81
2023-01-10T12:00:20.475Z,1011.76
2023-01-10T12:01:20.526Z,1011.74
2023-01-10T12:02:20.454Z,1011.74
2023-01-10T12:03:20.397Z,1011.84
2023-01-10T12:04:20.369Z,1011.79
2023-01-10T12:05:20.415Z,1011.73